sensor_id;sensor_type;location;lat;lon;timestamp;P1;durP1;ratioP1;P2;durP2;ratioP2
12218;SDS011;6172;42.646;23.344;2023-06-26T00:02:15;19.63;;;16.83;;
12218;SDS011;6172;42.646;23.344;2023-06-26T00:04:42;20.85;;;16.48;;
12218;SDS011;6172;42.646;23.344;2023-06-26T00:07:10;20.63;;;17.13;;
12218;SDS011;6172;42.646;23.344;2023-06-26T00:09:37;17.63;;;15.70;;
12218;SDS011;6172;42.646;23.344;2023-06-26T00:12:06;19.30;;;16.25;;
12218;SDS011;6172;42.646;23.344;2023-06-26T00:14:33;18.60;;;15.25;;
12218;SDS011;6172;42.646;23.344;2023-06-26T00:16:59;23.77;;;15.98;;
12218;SDS011;6172;42.646;23.344;2023-06-26T00:19:26;18.40;;;15.65;;
12218;SDS011;6172;42.646;23.344;2023-06-26T00:21:53;16.70;;;14.60;;
12218;SDS011;6172;42.646;23.344;2023-06-26T00:24:20;17.50;;;15.18;;
12218;SDS011;6172;42.646;23.344;2023-06-26T00:26:47;16.63;;;14.73;;
12218;SDS011;6172;42.646;23.344;2023-06-26T00:29:16;19.80;;;15.43;;
12218;SDS011;6172;42.646;23.344;2023-06-26T00:31:43;17.13;;;14.57;;
12218;SDS011;6172;42.646;23.344;2023-06-26T00:34:10;16.70;;;14.45;;
12218;SDS011;6172;42.646;23.344;2023-06-26T00:36:36;17.95;;;14.20;;
12218;SDS011;6172;42.646;23.344;2023-06-26T00:39:03;16.95;;;13.90;;
12218;SDS011;6172;42.646;23.344;2023-06-26T00:41:30;16.80;;;13.90;;
12218;SDS011;6172;42.646;23.344;2023-06-26T00:43:57;14.77;;;13.27;;
12218;SDS011;6172;42.646;23.344;2023-06-26T00:46:26;15.48;;;12.93;;
12218;SDS011;6172;42.646;23.344;2023-06-26T00:48:52;14.27;;;12.77;;
12218;SDS011;6172;42.646;23.344;2023-06-26T00:51:21;14.23;;;12.38;;
12218;SDS011;6172;42.646;23.344;2023-06-26T00:53:48;13.32;;;11.95;;
12218;SDS011;6172;42.646;23.344;2023-06-26T00:56:15;14.73;;;12.32;;
12218;SDS011;6172;42.646;23.344;2023-06-26T00:58:44;15.48;;;12.68;;
12218;SDS011;6172;42.646;23.344;2023-06-26T01:01:11;14.90;;;13.38;;
12218;SDS011;6172;42.646;23.344;2023-06-26T01:03:43;13.93;;;12.00;;
12218;SDS011;6172;42.646;23.344;2023-06-26T01:06:11;13.73;;;12.30;;
12218;SDS011;6172;42.646;23.344;2023-06-26T01:08:41;12.80;;;11.07;;
12218;SDS011;6172;42.646;23.344;2023-06-26T01:11:08;14.48;;;11.60;;
12218;SDS011;6172;42.646;23.344;2023-06-26T01:13:37;13.05;;;11.65;;
12218;SDS011;6172;42.646;23.344;2023-06-26T01:16:05;14.93;;;11.10;;
12218;SDS011;6172;42.646;23.344;2023-06-26T01:18:32;11.73;;;10.52;;
12218;SDS011;6172;42.646;23.344;2023-06-26T01:21:03;12.75;;;11.20;;
12218;SDS011;6172;42.646;23.344;2023-06-26T01:23:31;12.52;;;11.23;;
12218;SDS011;6172;42.646;23.344;2023-06-26T01:26:15;13.52;;;11.30;;
12218;SDS011;6172;42.646;23.344;2023-06-26T01:28:45;13.13;;;11.43;;
12218;SDS011;6172;42.646;23.344;2023-06-26T01:31:13;12.05;;;10.75;;
12218;SDS011;6172;42.646;23.344;2023-06-26T01:33:41;14.65;;;11.15;;
12218;SDS011;6172;42.646;23.344;2023-06-26T01:36:09;14.63;;;12.00;;
12218;SDS011;6172;42.646;23.344;2023-06-26T01:38:37;13.15;;;11.38;;
12218;SDS011;6172;42.646;23.344;2023-06-26T01:41:03;14.70;;;12.00;;
12218;SDS011;6172;42.646;23.344;2023-06-26T01:43:34;13.70;;;11.77;;
12218;SDS011;6172;42.646;23.344;2023-06-26T01:46:06;15.13;;;11.75;;
12218;SDS011;6172;42.646;23.344;2023-06-26T01:48:38;14.35;;;11.15;;
12218;SDS011;6172;42.646;23.344;2023-06-26T01:51:15;13.30;;;11.32;;
12218;SDS011;6172;42.646;23.344;2023-06-26T01:53:45;13.45;;;12.02;;
12218;SDS011;6172;42.646;23.344;2023-06-26T01:56:17;12.63;;;11.27;;
12218;SDS011;6172;42.646;23.344;2023-06-26T01:58:47;13.75;;;12.07;;
12218;SDS011;6172;42.646;23.344;2023-06-26T02:01:18;15.95;;;12.10;;
12218;SDS011;6172;42.646;23.344;2023-06-26T02:03:45;14.05;;;12.55;;
12218;SDS011;6172;42.646;23.344;2023-06-26T02:06:12;14.85;;;12.85;;
12218;SDS011;6172;42.646;23.344;2023-06-26T02:08:39;14.13;;;12.73;;
12218;SDS011;6172;42.646;23.344;2023-06-26T02:11:06;14.38;;;12.57;;
12218;SDS011;6172;42.646;23.344;2023-06-26T02:13:33;14.98;;;11.75;;
12218;SDS011;6172;42.646;23.344;2023-06-26T02:16:20;12.73;;;11.43;;
12218;SDS011;6172;42.646;23.344;2023-06-26T02:18:46;13.75;;;12.25;;
12218;SDS011;6172;42.646;23.344;2023-06-26T02:21:14;13.13;;;11.80;;
12218;SDS011;6172;42.646;23.344;2023-06-26T02:23:41;13.30;;;11.63;;
12218;SDS011;6172;42.646;23.344;2023-06-26T02:26:08;15.93;;;12.38;;
12218;SDS011;6172;42.646;23.344;2023-06-26T02:28:35;15.38;;;11.98;;
12218;SDS011;6172;42.646;23.344;2023-06-26T02:31:01;13.48;;;12.07;;
12218;SDS011;6172;42.646;23.344;2023-06-26T02:33:31;13.85;;;12.35;;
12218;SDS011;6172;42.646;23.344;2023-06-26T02:35:58;13.77;;;12.10;;
12218;SDS011;6172;42.646;23.344;2023-06-26T02:38:25;13.68;;;12.25;;
12218;SDS011;6172;42.646;23.344;2023-06-26T02:40:52;12.40;;;11.20;;
12218;SDS011;6172;42.646;23.344;2023-06-26T02:43:19;15.88;;;13.23;;
12218;SDS011;6172;42.646;23.344;2023-06-26T02:45:46;18.35;;;14.40;;
12218;SDS011;6172;42.646;23.344;2023-06-26T02:48:13;16.30;;;13.85;;
12218;SDS011;6172;42.646;23.344;2023-06-26T02:50:43;17.02;;;15.20;;
12218;SDS011;6172;42.646;23.344;2023-06-26T02:53:11;16.63;;;14.10;;
12218;SDS011;6172;42.646;23.344;2023-06-26T02:55:38;15.25;;;13.65;;
12218;SDS011;6172;42.646;23.344;2023-06-26T02:58:05;14.68;;;13.20;;
12218;SDS011;6172;42.646;23.344;2023-06-26T03:00:32;18.98;;;14.98;;
12218;SDS011;6172;42.646;23.344;2023-06-26T03:02:59;18.05;;;14.00;;
12218;SDS011;6172;42.646;23.344;2023-06-26T03:05:26;16.92;;;14.75;;
12218;SDS011;6172;42.646;23.344;2023-06-26T03:07:54;15.88;;;14.38;;
12218;SDS011;6172;42.646;23.344;2023-06-26T03:10:21;16.25;;;14.50;;
12218;SDS011;6172;42.646;23.344;2023-06-26T03:12:49;16.10;;;14.40;;
12218;SDS011;6172;42.646;23.344;2023-06-26T03:15:16;17.17;;;15.23;;
12218;SDS011;6172;42.646;23.344;2023-06-26T03:17:44;15.60;;;13.93;;
12218;SDS011;6172;42.646;23.344;2023-06-26T03:20:11;17.27;;;15.30;;
12218;SDS011;6172;42.646;23.344;2023-06-26T03:22:38;16.90;;;15.20;;
12218;SDS011;6172;42.646;23.344;2023-06-26T03:25:07;18.65;;;15.77;;
12218;SDS011;6172;42.646;23.344;2023-06-26T03:27:34;19.35;;;14.68;;
12218;SDS011;6172;42.646;23.344;2023-06-26T03:30:00;16.40;;;14.77;;
12218;SDS011;6172;42.646;23.344;2023-06-26T03:32:27;17.40;;;15.30;;
12218;SDS011;6172;42.646;23.344;2023-06-26T03:34:54;17.40;;;15.57;;
12218;SDS011;6172;42.646;23.344;2023-06-26T03:37:21;17.48;;;15.70;;
12218;SDS011;6172;42.646;23.344;2023-06-26T03:39:48;17.38;;;15.50;;
12218;SDS011;6172;42.646;23.344;2023-06-26T03:42:16;17.10;;;15.40;;
12218;SDS011;6172;42.646;23.344;2023-06-26T03:44:43;17.45;;;15.75;;
12218;SDS011;6172;42.646;23.344;2023-06-26T03:47:10;18.10;;;16.20;;
12218;SDS011;6172;42.646;23.344;2023-06-26T03:49:38;17.60;;;15.85;;
12218;SDS011;6172;42.646;23.344;2023-06-26T03:52:05;18.40;;;16.20;;
12218;SDS011;6172;42.646;23.344;2023-06-26T03:54:32;19.17;;;17.27;;
12218;SDS011;6172;42.646;23.344;2023-06-26T03:57:01;19.00;;;15.98;;
12218;SDS011;6172;42.646;23.344;2023-06-26T03:59:29;18.05;;;16.25;;
12218;SDS011;6172;42.646;23.344;2023-06-26T04:01:56;18.10;;;16.27;;
12218;SDS011;6172;42.646;23.344;2023-06-26T04:04:24;17.48;;;15.77;;
12218;SDS011;6172;42.646;23.344;2023-06-26T04:06:50;17.70;;;16.00;;
12218;SDS011;6172;42.646;23.344;2023-06-26T04:09:18;16.95;;;14.93;;
12218;SDS011;6172;42.646;23.344;2023-06-26T04:11:44;17.42;;;15.73;;
12218;SDS011;6172;42.646;23.344;2023-06-26T04:14:11;16.17;;;14.48;;
12218;SDS011;6172;42.646;23.344;2023-06-26T04:16:40;19.65;;;14.98;;
12218;SDS011;6172;42.646;23.344;2023-06-26T04:19:07;17.92;;;16.00;;
12218;SDS011;6172;42.646;23.344;2023-06-26T04:21:35;16.10;;;14.48;;
12218;SDS011;6172;42.646;23.344;2023-06-26T04:24:02;17.60;;;15.48;;
12218;SDS011;6172;42.646;23.344;2023-06-26T04:26:30;15.57;;;13.90;;
12218;SDS011;6172;42.646;23.344;2023-06-26T04:28:57;15.30;;;13.82;;
12218;SDS011;6172;42.646;23.344;2023-06-26T04:31:24;15.02;;;13.63;;
12218;SDS011;6172;42.646;23.344;2023-06-26T04:33:53;15.02;;;13.63;;
12218;SDS011;6172;42.646;23.344;2023-06-26T04:36:20;14.68;;;13.18;;
12218;SDS011;6172;42.646;23.344;2023-06-26T04:38:47;15.57;;;14.07;;
12218;SDS011;6172;42.646;23.344;2023-06-26T04:41:14;14.68;;;13.25;;
12218;SDS011;6172;42.646;23.344;2023-06-26T04:43:42;14.23;;;12.65;;
12218;SDS011;6172;42.646;23.344;2023-06-26T04:46:10;13.93;;;12.60;;
12218;SDS011;6172;42.646;23.344;2023-06-26T04:48:37;13.52;;;12.23;;
12218;SDS011;6172;42.646;23.344;2023-06-26T04:51:08;14.07;;;12.68;;
12218;SDS011;6172;42.646;23.344;2023-06-26T04:53:35;13.15;;;11.93;;
12218;SDS011;6172;42.646;23.344;2023-06-26T04:56:02;14.35;;;12.52;;
12218;SDS011;6172;42.646;23.344;2023-06-26T04:58:30;15.00;;;13.60;;
12218;SDS011;6172;42.646;23.344;2023-06-26T05:01:00;14.55;;;13.20;;
12218;SDS011;6172;42.646;23.344;2023-06-26T05:03:27;15.57;;;13.82;;
12218;SDS011;6172;42.646;23.344;2023-06-26T05:05:54;14.57;;;13.18;;
12218;SDS011;6172;42.646;23.344;2023-06-26T05:08:23;15.23;;;13.73;;
12218;SDS011;6172;42.646;23.344;2023-06-26T05:10:52;15.38;;;13.60;;
12218;SDS011;6172;42.646;23.344;2023-06-26T05:13:22;14.00;;;12.60;;
12218;SDS011;6172;42.646;23.344;2023-06-26T05:15:50;14.77;;;13.38;;
12218;SDS011;6172;42.646;23.344;2023-06-26T05:18:18;15.25;;;13.50;;
12218;SDS011;6172;42.646;23.344;2023-06-26T05:20:46;15.45;;;13.00;;
12218;SDS011;6172;42.646;23.344;2023-06-26T05:23:14;14.77;;;13.27;;
12218;SDS011;6172;42.646;23.344;2023-06-26T05:25:44;14.95;;;13.55;;
12218;SDS011;6172;42.646;23.344;2023-06-26T05:28:12;13.60;;;12.18;;
12218;SDS011;6172;42.646;23.344;2023-06-26T05:30:40;15.40;;;13.80;;
12218;SDS011;6172;42.646;23.344;2023-06-26T05:33:08;13.70;;;12.43;;
12218;SDS011;6172;42.646;23.344;2023-06-26T05:35:38;14.07;;;12.70;;
12218;SDS011;6172;42.646;23.344;2023-06-26T05:38:08;14.35;;;12.80;;
12218;SDS011;6172;42.646;23.344;2023-06-26T05:40:35;14.07;;;12.57;;
12218;SDS011;6172;42.646;23.344;2023-06-26T05:43:05;15.15;;;13.18;;
12218;SDS011;6172;42.646;23.344;2023-06-26T05:45:32;14.50;;;12.98;;
12218;SDS011;6172;42.646;23.344;2023-06-26T05:48:00;14.10;;;12.63;;
12218;SDS011;6172;42.646;23.344;2023-06-26T05:50:27;13.48;;;12.18;;
12218;SDS011;6172;42.646;23.344;2023-06-26T05:52:55;15.00;;;12.98;;
12218;SDS011;6172;42.646;23.344;2023-06-26T05:55:23;15.23;;;13.63;;
12218;SDS011;6172;42.646;23.344;2023-06-26T05:57:51;16.83;;;14.07;;
12218;SDS011;6172;42.646;23.344;2023-06-26T06:00:22;14.50;;;13.05;;
12218;SDS011;6172;42.646;23.344;2023-06-26T06:02:51;14.65;;;11.73;;
12218;SDS011;6172;42.646;23.344;2023-06-26T06:05:19;13.70;;;12.43;;
12218;SDS011;6172;42.646;23.344;2023-06-26T06:07:46;13.95;;;12.27;;
12218;SDS011;6172;42.646;23.344;2023-06-26T06:10:13;12.57;;;11.48;;
12218;SDS011;6172;42.646;23.344;2023-06-26T06:12:40;13.02;;;11.82;;
12218;SDS011;6172;42.646;23.344;2023-06-26T06:15:07;12.93;;;11.68;;
12218;SDS011;6172;42.646;23.344;2023-06-26T06:17:36;13.18;;;11.73;;
12218;SDS011;6172;42.646;23.344;2023-06-26T06:20:03;14.27;;;10.55;;
12218;SDS011;6172;42.646;23.344;2023-06-26T06:22:31;10.63;;;9.68;;
12218;SDS011;6172;42.646;23.344;2023-06-26T06:24:58;11.18;;;10.07;;
12218;SDS011;6172;42.646;23.344;2023-06-26T06:27:25;11.38;;;10.18;;
12218;SDS011;6172;42.646;23.344;2023-06-26T06:29:54;10.55;;;9.55;;
12218;SDS011;6172;42.646;23.344;2023-06-26T06:32:21;10.60;;;9.52;;
12218;SDS011;6172;42.646;23.344;2023-06-26T06:34:51;10.65;;;9.55;;
12218;SDS011;6172;42.646;23.344;2023-06-26T06:37:18;11.10;;;9.93;;
12218;SDS011;6172;42.646;23.344;2023-06-26T06:39:45;10.48;;;9.57;;
12218;SDS011;6172;42.646;23.344;2023-06-26T06:42:12;11.02;;;10.00;;
12218;SDS011;6172;42.646;23.344;2023-06-26T06:44:39;10.65;;;9.65;;
12218;SDS011;6172;42.646;23.344;2023-06-26T06:47:07;14.13;;;10.23;;
12218;SDS011;6172;42.646;23.344;2023-06-26T06:49:34;9.77;;;8.77;;
12218;SDS011;6172;42.646;23.344;2023-06-26T06:52:03;9.82;;;8.90;;
12218;SDS011;6172;42.646;23.344;2023-06-26T06:54:30;9.15;;;8.35;;
12218;SDS011;6172;42.646;23.344;2023-06-26T06:56:57;9.15;;;8.25;;
12218;SDS011;6172;42.646;23.344;2023-06-26T06:59:24;9.20;;;8.30;;
12218;SDS011;6172;42.646;23.344;2023-06-26T07:01:51;8.82;;;8.05;;
12218;SDS011;6172;42.646;23.344;2023-06-26T07:04:18;8.93;;;8.23;;
12218;SDS011;6172;42.646;23.344;2023-06-26T07:06:58;7.93;;;7.13;;
12218;SDS011;6172;42.646;23.344;2023-06-26T07:09:27;7.28;;;6.55;;
12218;SDS011;6172;42.646;23.344;2023-06-26T07:11:54;7.15;;;6.45;;
12218;SDS011;6172;42.646;23.344;2023-06-26T07:14:21;6.75;;;6.03;;
12218;SDS011;6172;42.646;23.344;2023-06-26T07:16:48;7.07;;;6.47;;
12218;SDS011;6172;42.646;23.344;2023-06-26T07:19:15;7.97;;;6.70;;
12218;SDS011;6172;42.646;23.344;2023-06-26T07:21:41;6.97;;;6.38;;
12218;SDS011;6172;42.646;23.344;2023-06-26T07:24:09;7.82;;;6.30;;
12218;SDS011;6172;42.646;23.344;2023-06-26T07:26:38;7.13;;;6.38;;
12218;SDS011;6172;42.646;23.344;2023-06-26T07:29:05;7.60;;;6.15;;
12218;SDS011;6172;42.646;23.344;2023-06-26T07:31:32;5.70;;;5.20;;
12218;SDS011;6172;42.646;23.344;2023-06-26T07:33:59;6.35;;;5.75;;
12218;SDS011;6172;42.646;23.344;2023-06-26T07:36:26;7.20;;;5.22;;
12218;SDS011;6172;42.646;23.344;2023-06-26T07:38:53;10.10;;;6.10;;
12218;SDS011;6172;42.646;23.344;2023-06-26T07:41:20;10.55;;;5.78;;
12218;SDS011;6172;42.646;23.344;2023-06-26T07:43:49;11.38;;;7.10;;
12218;SDS011;6172;42.646;23.344;2023-06-26T07:46:15;8.05;;;5.85;;
12218;SDS011;6172;42.646;23.344;2023-06-26T07:48:43;5.63;;;5.07;;
12218;SDS011;6172;42.646;23.344;2023-06-26T07:51:09;9.70;;;6.10;;
12218;SDS011;6172;42.646;23.344;2023-06-26T07:53:36;8.75;;;6.18;;
12218;SDS011;6172;42.646;23.344;2023-06-26T07:56:04;7.32;;;5.43;;
12218;SDS011;6172;42.646;23.344;2023-06-26T07:58:30;9.18;;;5.82;;
12218;SDS011;6172;42.646;23.344;2023-06-26T08:00:59;13.32;;;5.00;;
12218;SDS011;6172;42.646;23.344;2023-06-26T08:03:26;5.70;;;4.47;;
12218;SDS011;6172;42.646;23.344;2023-06-26T08:05:53;5.30;;;4.45;;
12218;SDS011;6172;42.646;23.344;2023-06-26T08:08:19;6.10;;;4.30;;
12218;SDS011;6172;42.646;23.344;2023-06-26T08:10:46;6.20;;;5.50;;
12218;SDS011;6172;42.646;23.344;2023-06-26T08:13:13;6.68;;;5.22;;
12218;SDS011;6172;42.646;23.344;2023-06-26T08:15:40;8.27;;;5.15;;
12218;SDS011;6172;42.646;23.344;2023-06-26T08:18:08;5.93;;;4.50;;
12218;SDS011;6172;42.646;23.344;2023-06-26T08:20:35;6.15;;;4.90;;
12218;SDS011;6172;42.646;23.344;2023-06-26T08:23:03;12.63;;;4.50;;
12218;SDS011;6172;42.646;23.344;2023-06-26T08:25:30;7.90;;;4.65;;
12218;SDS011;6172;42.646;23.344;2023-06-26T08:27:57;4.57;;;4.18;;
12218;SDS011;6172;42.646;23.344;2023-06-26T08:30:24;4.40;;;4.03;;
12218;SDS011;6172;42.646;23.344;2023-06-26T08:32:53;6.22;;;4.47;;
12218;SDS011;6172;42.646;23.344;2023-06-26T08:35:21;5.93;;;4.70;;
12218;SDS011;6172;42.646;23.344;2023-06-26T08:37:48;7.70;;;5.35;;
12218;SDS011;6172;42.646;23.344;2023-06-26T08:40:17;6.00;;;5.05;;
12218;SDS011;6172;42.646;23.344;2023-06-26T08:42:45;6.10;;;5.60;;
12218;SDS011;6172;42.646;23.344;2023-06-26T08:45:12;7.07;;;5.43;;
12218;SDS011;6172;42.646;23.344;2023-06-26T08:47:39;8.50;;;5.22;;
12218;SDS011;6172;42.646;23.344;2023-06-26T08:50:10;9.45;;;5.15;;
12218;SDS011;6172;42.646;23.344;2023-06-26T08:52:43;6.07;;;4.93;;
12218;SDS011;6172;42.646;23.344;2023-06-26T08:55:12;5.90;;;4.55;;
12218;SDS011;6172;42.646;23.344;2023-06-26T08:57:42;5.72;;;5.00;;
12218;SDS011;6172;42.646;23.344;2023-06-26T09:00:09;5.60;;;5.00;;
12218;SDS011;6172;42.646;23.344;2023-06-26T09:02:40;5.53;;;4.72;;
12218;SDS011;6172;42.646;23.344;2023-06-26T09:05:07;5.93;;;3.72;;
12218;SDS011;6172;42.646;23.344;2023-06-26T09:07:34;4.57;;;4.18;;
12218;SDS011;6172;42.646;23.344;2023-06-26T09:10:03;5.47;;;4.70;;
12218;SDS011;6172;42.646;23.344;2023-06-26T09:12:30;5.40;;;4.32;;
12218;SDS011;6172;42.646;23.344;2023-06-26T09:14:59;5.10;;;4.60;;
12218;SDS011;6172;42.646;23.344;2023-06-26T09:17:29;6.15;;;4.00;;
12218;SDS011;6172;42.646;23.344;2023-06-26T09:19:57;5.60;;;4.80;;
12218;SDS011;6172;42.646;23.344;2023-06-26T09:22:24;5.40;;;4.55;;
12218;SDS011;6172;42.646;23.344;2023-06-26T09:24:51;5.32;;;4.45;;
12218;SDS011;6172;42.646;23.344;2023-06-26T09:27:20;5.18;;;4.32;;
12218;SDS011;6172;42.646;23.344;2023-06-26T09:29:47;4.75;;;3.85;;
12218;SDS011;6172;42.646;23.344;2023-06-26T09:32:15;4.53;;;4.13;;
12218;SDS011;6172;42.646;23.344;2023-06-26T09:34:42;4.28;;;3.80;;
12218;SDS011;6172;42.646;23.344;2023-06-26T09:37:11;6.10;;;3.88;;
12218;SDS011;6172;42.646;23.344;2023-06-26T09:39:39;3.85;;;3.42;;
12218;SDS011;6172;42.646;23.344;2023-06-26T09:42:06;4.13;;;3.75;;
12218;SDS011;6172;42.646;23.344;2023-06-26T09:44:35;4.75;;;4.35;;
12218;SDS011;6172;42.646;23.344;2023-06-26T09:47:02;4.47;;;4.03;;
12218;SDS011;6172;42.646;23.344;2023-06-26T09:49:30;4.28;;;3.80;;
12218;SDS011;6172;42.646;23.344;2023-06-26T09:52:01;5.22;;;4.82;;
12218;SDS011;6172;42.646;23.344;2023-06-26T09:54:28;8.73;;;5.40;;
12218;SDS011;6172;42.646;23.344;2023-06-26T09:57:06;5.50;;;4.60;;
12218;SDS011;6172;42.646;23.344;2023-06-26T09:59:36;4.95;;;4.47;;
12218;SDS011;6172;42.646;23.344;2023-06-26T10:02:04;5.18;;;4.78;;
12218;SDS011;6172;42.646;23.344;2023-06-26T10:04:31;5.32;;;4.80;;
12218;SDS011;6172;42.646;23.344;2023-06-26T10:07:00;4.25;;;3.85;;
12218;SDS011;6172;42.646;23.344;2023-06-26T10:09:28;4.88;;;4.28;;
12218;SDS011;6172;42.646;23.344;2023-06-26T10:12:00;4.60;;;4.22;;
12218;SDS011;6172;42.646;23.344;2023-06-26T10:14:33;7.43;;;4.65;;
12218;SDS011;6172;42.646;23.344;2023-06-26T10:17:07;5.22;;;4.15;;
12218;SDS011;6172;42.646;23.344;2023-06-26T10:19:36;4.45;;;4.05;;
12218;SDS011;6172;42.646;23.344;2023-06-26T10:22:09;5.70;;;3.95;;
12218;SDS011;6172;42.646;23.344;2023-06-26T10:24:38;6.88;;;4.57;;
12218;SDS011;6172;42.646;23.344;2023-06-26T10:27:08;5.63;;;4.75;;
12218;SDS011;6172;42.646;23.344;2023-06-26T10:29:46;5.90;;;4.63;;
12218;SDS011;6172;42.646;23.344;2023-06-26T10:32:15;7.82;;;4.53;;
12218;SDS011;6172;42.646;23.344;2023-06-26T10:34:44;6.53;;;4.63;;
12218;SDS011;6172;42.646;23.344;2023-06-26T10:37:11;6.10;;;4.38;;
12218;SDS011;6172;42.646;23.344;2023-06-26T10:39:46;5.88;;;4.20;;
12218;SDS011;6172;42.646;23.344;2023-06-26T10:42:19;5.00;;;4.32;;
12218;SDS011;6172;42.646;23.344;2023-06-26T10:45:08;5.38;;;4.45;;
12218;SDS011;6172;42.646;23.344;2023-06-26T10:47:39;11.75;;;5.35;;
12218;SDS011;6172;42.646;23.344;2023-06-26T10:50:17;10.43;;;5.40;;
12218;SDS011;6172;42.646;23.344;2023-06-26T10:52:45;10.00;;;5.10;;
12218;SDS011;6172;42.646;23.344;2023-06-26T10:55:13;7.78;;;5.43;;
12218;SDS011;6172;42.646;23.344;2023-06-26T10:57:44;8.82;;;5.22;;
12218;SDS011;6172;42.646;23.344;2023-06-26T11:00:19;4.70;;;4.15;;
12218;SDS011;6172;42.646;23.344;2023-06-26T11:02:49;5.22;;;4.72;;
12218;SDS011;6172;42.646;23.344;2023-06-26T11:05:25;4.82;;;4.25;;
12218;SDS011;6172;42.646;23.344;2023-06-26T11:08:02;6.00;;;5.15;;
12218;SDS011;6172;42.646;23.344;2023-06-26T11:13:17;5.70;;;5.18;;
12218;SDS011;6172;42.646;23.344;2023-06-26T11:15:49;5.47;;;5.07;;
12218;SDS011;6172;42.646;23.344;2023-06-26T11:18:16;6.78;;;5.60;;
12218;SDS011;6172;42.646;23.344;2023-06-26T11:20:43;4.90;;;4.47;;
12218;SDS011;6172;42.646;23.344;2023-06-26T11:23:10;4.75;;;4.28;;
12218;SDS011;6172;42.646;23.344;2023-06-26T11:25:40;4.63;;;4.20;;
12218;SDS011;6172;42.646;23.344;2023-06-26T11:28:09;5.97;;;5.38;;
12218;SDS011;6172;42.646;23.344;2023-06-26T11:30:37;5.50;;;4.85;;
12218;SDS011;6172;42.646;23.344;2023-06-26T11:33:08;5.72;;;4.75;;
12218;SDS011;6172;42.646;23.344;2023-06-26T11:35:37;5.30;;;4.75;;
12218;SDS011;6172;42.646;23.344;2023-06-26T11:38:05;8.18;;;5.32;;
12218;SDS011;6172;42.646;23.344;2023-06-26T11:40:34;5.97;;;4.65;;
12218;SDS011;6172;42.646;23.344;2023-06-26T11:43:04;6.85;;;4.75;;
12218;SDS011;6172;42.646;23.344;2023-06-26T11:45:31;8.75;;;4.78;;
12218;SDS011;6172;42.646;23.344;2023-06-26T11:47:59;6.30;;;4.70;;
12218;SDS011;6172;42.646;23.344;2023-06-26T11:53:40;5.75;;;4.80;;
12218;SDS011;6172;42.646;23.344;2023-06-26T11:56:09;5.40;;;4.88;;
12218;SDS011;6172;42.646;23.344;2023-06-26T12:01:23;5.68;;;4.78;;
12218;SDS011;6172;42.646;23.344;2023-06-26T12:03:51;5.10;;;4.53;;
12218;SDS011;6172;42.646;23.344;2023-06-26T12:06:23;5.07;;;4.57;;
12218;SDS011;6172;42.646;23.344;2023-06-26T12:11:48;5.05;;;4.55;;
12218;SDS011;6172;42.646;23.344;2023-06-26T12:14:19;6.32;;;4.93;;
12218;SDS011;6172;42.646;23.344;2023-06-26T12:16:46;8.25;;;4.45;;
12218;SDS011;6172;42.646;23.344;2023-06-26T12:19:14;5.63;;;5.07;;
12218;SDS011;6172;42.646;23.344;2023-06-26T12:21:45;5.40;;;4.50;;
12218;SDS011;6172;42.646;23.344;2023-06-26T12:24:18;5.88;;;4.97;;
12218;SDS011;6172;42.646;23.344;2023-06-26T12:26:47;7.05;;;4.78;;
12218;SDS011;6172;42.646;23.344;2023-06-26T12:29:19;5.05;;;4.40;;
12218;SDS011;6172;42.646;23.344;2023-06-26T12:31:49;6.63;;;4.60;;
12218;SDS011;6172;42.646;23.344;2023-06-26T12:34:18;6.35;;;5.25;;
12218;SDS011;6172;42.646;23.344;2023-06-26T12:36:47;8.15;;;5.03;;
12218;SDS011;6172;42.646;23.344;2023-06-26T12:39:16;7.68;;;5.28;;
12218;SDS011;6172;42.646;23.344;2023-06-26T12:41:44;4.60;;;4.20;;
12218;SDS011;6172;42.646;23.344;2023-06-26T12:44:21;4.78;;;4.15;;
12218;SDS011;6172;42.646;23.344;2023-06-26T12:46:53;5.13;;;4.70;;
12218;SDS011;6172;42.646;23.344;2023-06-26T12:49:29;4.80;;;4.40;;
12218;SDS011;6172;42.646;23.344;2023-06-26T12:51:58;5.18;;;4.20;;
12218;SDS011;6172;42.646;23.344;2023-06-26T12:54:25;4.97;;;4.43;;
12218;SDS011;6172;42.646;23.344;2023-06-26T12:56:53;6.38;;;4.82;;
12218;SDS011;6172;42.646;23.344;2023-06-26T12:59:22;5.47;;;4.97;;
12218;SDS011;6172;42.646;23.344;2023-06-26T13:01:49;5.65;;;5.05;;
12218;SDS011;6172;42.646;23.344;2023-06-26T13:04:16;7.45;;;4.68;;
12218;SDS011;6172;42.646;23.344;2023-06-26T13:06:45;5.38;;;4.93;;
12218;SDS011;6172;42.646;23.344;2023-06-26T13:09:12;5.07;;;4.68;;
12218;SDS011;6172;42.646;23.344;2023-06-26T13:11:39;7.22;;;4.78;;
12218;SDS011;6172;42.646;23.344;2023-06-26T13:14:06;6.38;;;4.97;;
12218;SDS011;6172;42.646;23.344;2023-06-26T13:16:34;7.32;;;4.30;;
12218;SDS011;6172;42.646;23.344;2023-06-26T13:19:02;8.60;;;5.03;;
12218;SDS011;6172;42.646;23.344;2023-06-26T13:21:28;5.45;;;4.93;;
12218;SDS011;6172;42.646;23.344;2023-06-26T13:23:55;6.15;;;5.25;;
12218;SDS011;6172;42.646;23.344;2023-06-26T13:26:24;8.00;;;5.15;;
12218;SDS011;6172;42.646;23.344;2023-06-26T13:28:53;6.55;;;4.97;;
12218;SDS011;6172;42.646;23.344;2023-06-26T13:31:20;7.85;;;4.75;;
12218;SDS011;6172;42.646;23.344;2023-06-26T13:33:48;5.95;;;4.65;;
12218;SDS011;6172;42.646;23.344;2023-06-26T13:36:17;6.93;;;5.00;;
12218;SDS011;6172;42.646;23.344;2023-06-26T13:38:44;6.85;;;4.30;;
12218;SDS011;6172;42.646;23.344;2023-06-26T13:41:13;5.00;;;4.57;;
12218;SDS011;6172;42.646;23.344;2023-06-26T13:43:40;4.80;;;4.40;;
12218;SDS011;6172;42.646;23.344;2023-06-26T13:46:07;5.50;;;5.00;;
12218;SDS011;6172;42.646;23.344;2023-06-26T13:48:35;6.35;;;4.30;;
12218;SDS011;6172;42.646;23.344;2023-06-26T13:51:04;4.68;;;4.28;;
12218;SDS011;6172;42.646;23.344;2023-06-26T13:53:30;4.82;;;4.32;;
12218;SDS011;6172;42.646;23.344;2023-06-26T13:55:57;6.65;;;4.97;;
12218;SDS011;6172;42.646;23.344;2023-06-26T13:58:24;6.75;;;4.68;;
12218;SDS011;6172;42.646;23.344;2023-06-26T14:00:52;4.63;;;4.30;;
12218;SDS011;6172;42.646;23.344;2023-06-26T14:03:19;6.68;;;4.75;;
12218;SDS011;6172;42.646;23.344;2023-06-26T14:05:46;8.00;;;5.10;;
12218;SDS011;6172;42.646;23.344;2023-06-26T14:08:14;6.18;;;4.75;;
12218;SDS011;6172;42.646;23.344;2023-06-26T14:10:41;5.20;;;4.80;;
12218;SDS011;6172;42.646;23.344;2023-06-26T14:13:08;5.90;;;5.05;;
12218;SDS011;6172;42.646;23.344;2023-06-26T14:15:36;5.85;;;5.05;;
12218;SDS011;6172;42.646;23.344;2023-06-26T14:18:05;7.95;;;5.13;;
12218;SDS011;6172;42.646;23.344;2023-06-26T14:20:32;6.03;;;4.57;;
12218;SDS011;6172;42.646;23.344;2023-06-26T14:23:01;5.15;;;4.75;;
12218;SDS011;6172;42.646;23.344;2023-06-26T14:25:29;5.10;;;4.68;;
12218;SDS011;6172;42.646;23.344;2023-06-26T14:27:56;5.15;;;4.65;;
12218;SDS011;6172;42.646;23.344;2023-06-26T14:30:24;5.18;;;4.70;;
12218;SDS011;6172;42.646;23.344;2023-06-26T14:32:51;4.82;;;4.43;;
12218;SDS011;6172;42.646;23.344;2023-06-26T14:35:18;5.20;;;4.68;;
12218;SDS011;6172;42.646;23.344;2023-06-26T14:37:45;5.78;;;4.65;;
12218;SDS011;6172;42.646;23.344;2023-06-26T14:40:12;5.22;;;4.72;;
12218;SDS011;6172;42.646;23.344;2023-06-26T14:42:43;4.35;;;3.95;;
12218;SDS011;6172;42.646;23.344;2023-06-26T14:45:10;8.43;;;4.30;;
12218;SDS011;6172;42.646;23.344;2023-06-26T14:47:37;6.30;;;4.50;;
12218;SDS011;6172;42.646;23.344;2023-06-26T14:50:05;5.93;;;5.13;;
12218;SDS011;6172;42.646;23.344;2023-06-26T14:52:32;5.43;;;4.93;;
12218;SDS011;6172;42.646;23.344;2023-06-26T14:54:59;7.85;;;5.95;;